Time;durP1;ratioP1;P1;durP2;ratioP2;P2;SDS_P1;SDS_P2;PMS_P1;PMS_P2;Temp;Humidity;BMP_temperature;BMP_pressure;BME280_temperature;BME280_humidity;BME280_pressure;Samples;Min_cycle;Max_cycle;Signal;HPM_P1;HPM_P2
2020/12/11 00:00:17;;;;;;;20.47;17.37;;;;;;;;;;5117546;27;20052;-61
2020/12/11 00:02:43;;;;;;;19.33;17.23;;;;;;;;;;5126209;27;20045;-61
2020/12/11 00:05:10;;;;;;;23.50;17.63;;;;;;;;;;5123334;27;20035;-60
2020/12/11 00:07:37;;;;;;;22.43;17.33;;;;;;;;;;5119075;27;20027;-60
2020/12/11 00:10:04;;;;;;;19.80;16.87;;;;;;;;;;5116905;27;20035;-60
2020/12/11 00:12:30;;;;;;;20.13;17.97;;;;;;;;;;5125377;27;20542;-61
2020/12/11 00:14:56;;;;;;;18.50;15.57;;;;;;;;;;5122132;27;20117;-60
2020/12/11 00:17:22;;;;;;;19.17;17.00;;;;;;;;;;5121483;27;20106;-60
2020/12/11 00:19:48;;;;;;;21.27;17.40;;;;;;;;;;5122546;27;20365;-60
2020/12/11 00:22:14;;;;;;;19.27;16.30;;;;;;;;;;5119908;27;20029;-60
2020/12/11 00:24:41;;;;;;;20.27;16.90;;;;;;;;;;5123674;27;20011;-60
2020/12/11 00:27:08;;;;;;;17.63;15.30;;;;;;;;;;5123677;27;20473;-60
2020/12/11 00:29:34;;;;;;;17.87;15.37;;;;;;;;;;5122699;27;20058;-60
2020/12/11 00:32:04;;;;;;;18.37;15.13;;;;;;;;;;5117485;27;20023;-60
2020/12/11 00:34:31;;;;;;;17.27;15.40;;;;;;;;;;5126728;27;20057;-60
2020/12/11 00:36:57;;;;;;;18.37;15.37;;;;;;;;;;5121740;27;20042;-60
2020/12/11 00:39:23;;;;;;;19.17;14.97;;;;;;;;;;5106505;27;20389;-60
2020/12/11 00:41:49;;;;;;;17.57;15.67;;;;;;;;;;5121199;27;20054;-60
2020/12/11 00:44:15;;;;;;;19.10;16.90;;;;;;;;;;5116535;27;20038;-60
2020/12/11 00:46:41;;;;;;;19.90;16.40;;;;;;;;;;5118185;27;20042;-60
2020/12/11 00:49:07;;;;;;;20.57;16.83;;;;;;;;;;5120637;27;20034;-59
2020/12/11 00:51:33;;;;;;;18.27;16.27;;;;;;;;;;5114849;27;20031;-60
2020/12/11 00:53:59;;;;;;;20.90;16.43;;;;;;;;;;5123167;27;20084;-60
2020/12/11 00:56:25;;;;;;;18.63;16.63;;;;;;;;;;5122171;27;20483;-60
2020/12/11 00:58:51;;;;;;;18.73;15.97;;;;;;;;;;5122371;27;20035;-60
2020/12/11 01:01:18;;;;;;;18.80;16.73;;;;;;;;;;5125199;27;20067;-61
2020/12/11 01:03:44;;;;;;;21.23;16.37;;;;;;;;;;5125291;27;20041;-61
2020/12/11 01:06:10;;;;;;;18.53;16.20;;;;;;;;;;5122560;27;20033;-61
2020/12/11 01:08:36;;;;;;;18.90;16.90;;;;;;;;;;5119442;27;20035;-61
2020/12/11 01:11:02;;;;;;;18.67;16.20;;;;;;;;;;5125854;27;20027;-61
2020/12/11 01:13:28;;;;;;;17.90;15.83;;;;;;;;;;5123438;27;20051;-61
2020/12/11 01:15:55;;;;;;;19.57;16.80;;;;;;;;;;5119356;27;20107;-60
2020/12/11 01:18:21;;;;;;;18.50;16.27;;;;;;;;;;5118052;27;20448;-61
2020/12/11 01:20:47;;;;;;;19.57;15.90;;;;;;;;;;5125714;27;20022;-61
2020/12/11 01:23:13;;;;;;;17.93;16.13;;;;;;;;;;5107471;27;20031;-61
2020/12/11 01:25:39;;;;;;;18.97;16.73;;;;;;;;;;5119905;27;20027;-61
2020/12/11 01:28:05;;;;;;;18.63;15.97;;;;;;;;;;5114079;27;20119;-61
2020/12/11 01:30:32;;;;;;;17.20;15.43;;;;;;;;;;5106073;27;20063;-61
2020/12/11 01:32:58;;;;;;;17.90;16.00;;;;;;;;;;5120122;27;20023;-61
2020/12/11 01:35:24;;;;;;;17.30;15.40;;;;;;;;;;5118817;27;20031;-61
2020/12/11 01:37:50;;;;;;;19.03;16.33;;;;;;;;;;5104908;27;20052;-61
2020/12/11 01:40:16;;;;;;;18.50;15.53;;;;;;;;;;5097128;27;20034;-61
2020/12/11 01:42:42;;;;;;;20.17;15.37;;;;;;;;;;5118042;27;20426;-60
2020/12/11 01:45:09;;;;;;;19.23;16.43;;;;;;;;;;5115146;27;20037;-61
2020/12/11 01:47:39;;;;;;;19.63;16.87;;;;;;;;;;5125691;27;20499;-61
2020/12/11 01:50:06;;;;;;;18.97;16.57;;;;;;;;;;5116724;27;20028;-61
2020/12/11 01:52:32;;;;;;;19.80;15.53;;;;;;;;;;5119522;27;20027;-61
2020/12/11 01:54:58;;;;;;;19.07;16.43;;;;;;;;;;5120596;27;20027;-61
2020/12/11 01:57:28;;;;;;;18.13;16.17;;;;;;;;;;5118878;27;20103;-61
2020/12/11 01:59:55;;;;;;;17.43;15.17;;;;;;;;;;5114961;27;20366;-61
2020/12/11 02:02:21;;;;;;;19.20;15.80;;;;;;;;;;5123357;27;20053;-60
2020/12/11 02:04:48;;;;;;;15.73;14.17;;;;;;;;;;5118407;27;20027;-60
2020/12/11 02:07:15;;;;;;;16.03;14.40;;;;;;;;;;5125148;27;20049;-61
2020/12/11 02:09:41;;;;;;;16.63;14.57;;;;;;;;;;5127763;27;20106;-60
2020/12/11 02:12:07;;;;;;;15.87;14.27;;;;;;;;;;5125183;27;20545;-60
2020/12/11 02:14:33;;;;;;;15.23;13.07;;;;;;;;;;5130081;27;20480;-61
2020/12/11 02:16:59;;;;;;;15.97;13.57;;;;;;;;;;5120379;27;20027;-61
2020/12/11 02:19:29;;;;;;;14.53;13.03;;;;;;;;;;5127277;27;20527;-60
2020/12/11 02:21:59;;;;;;;13.13;11.83;;;;;;;;;;5128178;27;20091;-60
2020/12/11 02:24:25;;;;;;;13.10;11.73;;;;;;;;;;5121078;27;20027;-60
2020/12/11 02:26:55;;;;;;;12.60;11.40;;;;;;;;;;5125688;27;20078;-61
2020/12/11 02:29:22;;;;;;;13.33;11.93;;;;;;;;;;5125499;27;20070;-60
2020/12/11 02:31:48;;;;;;;13.43;12.13;;;;;;;;;;5121609;27;20919;-60
2020/12/11 02:34:14;;;;;;;12.87;11.60;;;;;;;;;;5110118;27;20415;-60
2020/12/11 02:36:40;;;;;;;12.67;11.50;;;;;;;;;;5121390;27;20027;-60
2020/12/11 02:39:06;;;;;;;13.20;11.90;;;;;;;;;;5127588;27;20398;-60
2020/12/11 02:41:32;;;;;;;13.13;11.63;;;;;;;;;;5116904;27;20106;-60
2020/12/11 02:43:58;;;;;;;12.73;11.47;;;;;;;;;;5122938;27;20035;-60
2020/12/11 02:46:24;;;;;;;15.00;13.20;;;;;;;;;;5119703;27;20119;-60
2020/12/11 02:48:50;;;;;;;16.90;13.93;;;;;;;;;;5123975;27;20467;-60
2020/12/11 02:51:16;;;;;;;14.93;13.43;;;;;;;;;;5119830;27;20114;-60
2020/12/11 02:53:42;;;;;;;16.47;14.07;;;;;;;;;;5126395;27;20107;-60
2020/12/11 02:56:08;;;;;;;17.37;14.60;;;;;;;;;;5125387;27;20037;-60
2020/12/11 02:58:34;;;;;;;23.00;15.30;;;;;;;;;;5121823;27;20512;-60
2020/12/11 03:01:00;;;;;;;18.47;14.10;;;;;;;;;;5126694;27;20126;-60
2020/12/11 03:03:26;;;;;;;19.60;16.27;;;;;;;;;;5123691;27;20068;-60
2020/12/11 03:05:52;;;;;;;31.00;17.53;;;;;;;;;;5125108;27;20476;-60
2020/12/11 03:08:18;;;;;;;30.77;18.63;;;;;;;;;;5118199;27;20036;-61
2020/12/11 03:10:44;;;;;;;34.47;19.60;;;;;;;;;;5124386;27;20120;-59
2020/12/11 03:13:10;;;;;;;44.37;20.57;;;;;;;;;;5118509;27;20020;-59
2020/12/11 03:15:36;;;;;;;36.10;20.53;;;;;;;;;;5104383;27;20384;-62
2020/12/11 03:18:02;;;;;;;41.00;20.47;;;;;;;;;;5120074;27;20039;-61
2020/12/11 03:20:28;;;;;;;39.77;22.17;;;;;;;;;;5126237;27;20031;-59
2020/12/11 03:22:56;;;;;;;33.50;20.60;;;;;;;;;;5121870;27;20035;-60
2020/12/11 03:25:23;;;;;;;71.00;23.50;;;;;;;;;;5126273;27;20019;-60
2020/12/11 03:27:49;;;;;;;46.90;21.23;;;;;;;;;;5120155;27;20032;-60
2020/12/11 03:30:15;;;;;;;56.37;22.47;;;;;;;;;;5119919;27;20031;-59
2020/12/11 03:32:41;;;;;;;45.87;22.10;;;;;;;;;;5120706;27;20027;-59
2020/12/11 03:35:07;;;;;;;51.53;24.43;;;;;;;;;;5120059;27;20163;-60
2020/12/11 03:37:33;;;;;;;42.20;20.73;;;;;;;;;;5125066;27;20019;-59
2020/12/11 03:39:59;;;;;;;45.83;22.60;;;;;;;;;;5115850;27;20051;-59
2020/12/11 03:42:25;;;;;;;48.87;20.47;;;;;;;;;;5121427;27;20031;-59
2020/12/11 03:44:51;;;;;;;47.90;22.53;;;;;;;;;;5114380;27;20034;-59
2020/12/11 03:47:18;;;;;;;44.23;22.27;;;;;;;;;;5120702;27;20374;-59
2020/12/11 03:49:44;;;;;;;48.47;24.17;;;;;;;;;;5125670;27;20053;-61
2020/12/11 03:52:10;;;;;;;60.83;25.93;;;;;;;;;;5117514;27;20110;-60
2020/12/11 03:54:36;;;;;;;36.87;23.73;;;;;;;;;;5123497;27;20024;-60
2020/12/11 03:57:02;;;;;;;50.27;25.93;;;;;;;;;;5129672;27;20488;-61
2020/12/11 03:59:28;;;;;;;42.13;23.97;;;;;;;;;;5093331;27;639445;-60
2020/12/11 04:01:54;;;;;;;46.47;26.30;;;;;;;;;;5118944;27;20480;-60
2020/12/11 04:04:20;;;;;;;69.10;27.67;;;;;;;;;;5123861;27;20066;-60
2020/12/11 04:06:46;;;;;;;54.93;28.07;;;;;;;;;;5126675;27;20107;-60
2020/12/11 04:09:12;;;;;;;64.37;25.37;;;;;;;;;;5117062;27;20548;-60
2020/12/11 04:11:38;;;;;;;48.37;27.13;;;;;;;;;;5127234;27;20016;-60
2020/12/11 04:14:04;;;;;;;53.83;27.37;;;;;;;;;;5119187;27;20171;-60
2020/12/11 04:16:31;;;;;;;49.30;26.27;;;;;;;;;;5105820;27;20504;-60
2020/12/11 04:18:57;;;;;;;57.20;27.97;;;;;;;;;;5121272;27;20028;-60
2020/12/11 04:21:23;;;;;;;60.57;30.23;;;;;;;;;;5118256;27;20027;-60
2020/12/11 04:23:49;;;;;;;70.17;28.60;;;;;;;;;;5119858;27;20065;-61
2020/12/11 04:26:15;;;;;;;82.60;26.80;;;;;;;;;;5122538;27;20507;-61
2020/12/11 04:28:41;;;;;;;46.60;24.27;;;;;;;;;;5128440;27;20039;-60
2020/12/11 04:31:07;;;;;;;44.23;25.47;;;;;;;;;;5121885;27;20107;-60
2020/12/11 04:33:33;;;;;;;51.93;26.50;;;;;;;;;;5123069;27;20114;-61
2020/12/11 04:35:59;;;;;;;51.63;26.43;;;;;;;;;;5122132;27;20027;-60
2020/12/11 04:38:25;;;;;;;45.07;26.47;;;;;;;;;;5120776;27;20066;-60
2020/12/11 04:40:58;;;;;;;45.63;27.20;;;;;;;;;;5104352;27;20023;-60
2020/12/11 04:52:37;;;;;;;43.47;24.70;;;;;;;;;;5118279;27;20033;-60
2020/12/11 04:55:03;;;;;;;43.33;24.33;;;;;;;;;;5111645;27;20031;-60
2020/12/11 04:57:32;;;;;;;44.57;25.37;;;;;;;;;;5123172;27;20042;-60
2020/12/11 04:59:58;;;;;;;39.80;23.50;;;;;;;;;;5129377;27;20047;-61
2020/12/11 05:02:26;;;;;;;48.70;25.70;;;;;;;;;;5123708;27;20038;-60
2020/12/11 05:04:53;;;;;;;40.77;24.10;;;;;;;;;;5123755;27;20075;-60
2020/12/11 05:07:19;;;;;;;36.20;24.03;;;;;;;;;;5126020;27;20029;-60
2020/12/11 05:09:54;;;;;;;36.23;22.40;;;;;;;;;;5109624;27;20117;-60
2020/12/11 05:12:20;;;;;;;;;;;;;;;;;;5116922;27;20030;-60
2020/12/11 05:14:46;;;;;;;36.80;22.70;;;;;;;;;;5131512;27;19907;-60
2020/12/11 05:17:12;;;;;;;39.27;21.73;;;;;;;;;;5127538;27;20038;-61
2020/12/11 05:19:51;;;;;;;35.37;21.40;;;;;;;;;;5105402;27;20369;-61
2020/12/11 05:22:18;;;;;;;35.20;21.40;;;;;;;;;;5122301;27;20039;-60
2020/12/11 05:24:49;;;;;;;45.47;25.23;;;;;;;;;;5121500;27;20042;-61
2020/12/11 05:27:28;;;;;;;45.33;25.23;;;;;;;;;;5121557;27;20031;-61
2020/12/11 05:29:55;;;;;;;75.77;29.23;;;;;;;;;;5119481;27;20386;-61
2020/12/11 05:32:39;;;;;;;83.20;29.03;;;;;;;;;;5118241;27;20023;-61
2020/12/11 05:35:07;;;;;;;76.60;28.47;;;;;;;;;;5121258;27;20030;-62
2020/12/11 05:37:44;;;;;;;84.97;29.03;;;;;;;;;;5120532;27;20086;-61
2020/12/11 05:40:26;;;;;;;93.13;29.13;;;;;;;;;;5108559;27;20444;-61
2020/12/11 05:43:11;;;;;;;61.37;24.17;;;;;;;;;;5115601;27;20171;-61
2020/12/11 05:45:38;;;;;;;112.50;28.23;;;;;;;;;;5118177;27;20407;-61
2020/12/11 05:48:05;;;;;;;58.87;25.03;;;;;;;;;;5122352;27;20077;-60
2020/12/11 05:50:31;;;;;;;139.63;28.83;;;;;;;;;;5103385;27;20027;-61
2020/12/11 05:52:57;;;;;;;101.93;25.57;;;;;;;;;;5120061;27;20027;-61
2020/12/11 05:55:23;;;;;;;122.33;24.67;;;;;;;;;;5116368;27;20084;-60
2020/12/11 05:57:51;;;;;;;115.17;24.37;;;;;;;;;;5105644;27;20027;-61
2020/12/11 06:00:18;;;;;;;51.97;20.47;;;;;;;;;;5115042;27;20608;-60
2020/12/11 06:02:46;;;;;;;62.83;22.40;;;;;;;;;;5121090;27;20051;-61
2020/12/11 06:05:14;;;;;;;60.90;22.87;;;;;;;;;;5120854;27;20106;-60
2020/12/11 06:07:42;;;;;;;36.37;21.30;;;;;;;;;;5117056;27;20039;-60
2020/12/11 06:10:08;;;;;;;52.50;21.03;;;;;;;;;;5115071;27;20632;-60
2020/12/11 06:12:34;;;;;;;109.53;23.87;;;;;;;;;;5118860;27;20029;-61
2020/12/11 06:15:13;;;;;;;82.80;21.83;;;;;;;;;;5113379;27;20036;-60
2020/12/11 06:17:58;;;;;;;45.50;18.17;;;;;;;;;;5120712;27;20023;-60
2020/12/11 06:20:24;;;;;;;111.43;20.83;;;;;;;;;;5118054;27;20063;-60
2020/12/11 06:22:50;;;;;;;73.93;20.27;;;;;;;;;;5118651;27;20066;-60
2020/12/11 06:25:32;;;;;;;60.07;19.23;;;;;;;;;;5121924;27;20039;-60
2020/12/11 06:27:59;;;;;;;94.73;21.23;;;;;;;;;;5118343;27;20337;-60
2020/12/11 06:30:26;;;;;;;96.90;21.73;;;;;;;;;;5117334;27;20110;-61
2020/12/11 06:32:52;;;;;;;50.47;18.30;;;;;;;;;;5122663;27;20106;-61
2020/12/11 06:35:18;;;;;;;62.63;18.97;;;;;;;;;;5114631;27;20038;-61
2020/12/11 06:37:44;;;;;;;41.03;18.10;;;;;;;;;;5119916;27;20063;-61
2020/12/11 06:40:10;;;;;;;49.60;19.60;;;;;;;;;;5112786;27;20057;-61
2020/12/11 06:42:39;;;;;;;88.37;21.90;;;;;;;;;;5119230;27;20024;-61
2020/12/11 06:45:17;;;;;;;105.17;23.00;;;;;;;;;;5120919;27;20042;-59
2020/12/11 06:47:47;;;;;;;41.67;20.10;;;;;;;;;;5125070;27;20091;-59
2020/12/11 06:50:13;;;;;;;58.40;20.63;;;;;;;;;;5124745;27;20038;-59
2020/12/11 06:52:40;;;;;;;98.20;24.70;;;;;;;;;;5117134;27;20015;-59
2020/12/11 06:55:06;;;;;;;45.80;20.67;;;;;;;;;;5125182;27;20028;-60
2020/12/11 06:57:33;;;;;;;45.23;21.83;;;;;;;;;;5120759;27;20053;-59
2020/12/11 06:59:59;;;;;;;45.80;21.07;;;;;;;;;;5119259;27;20043;-60
2020/12/11 07:02:25;;;;;;;35.07;21.17;;;;;;;;;;5120592;27;20073;-59
2020/12/11 07:04:52;;;;;;;38.67;20.20;;;;;;;;;;5119586;27;20381;-59
2020/12/11 07:07:22;;;;;;;40.53;19.60;;;;;;;;;;5121112;27;20038;-60
2020/12/11 07:09:51;;;;;;;36.33;21.07;;;;;;;;;;5129261;27;20027;-60
2020/12/11 07:12:17;;;;;;;33.03;19.80;;;;;;;;;;5122591;27;20767;-60
2020/12/11 07:14:44;;;;;;;35.93;20.33;;;;;;;;;;5126785;27;20023;-60
2020/12/11 07:17:10;;;;;;;39.17;20.50;;;;;;;;;;5120119;27;20027;-60
2020/12/11 07:19:36;;;;;;;34.43;22.07;;;;;;;;;;5124190;27;20098;-60
2020/12/11 07:22:03;;;;;;;36.43;20.07;;;;;;;;;;5116199;27;20465;-60
2020/12/11 07:24:36;;;;;;;43.00;24.27;;;;;;;;;;5123701;27;20024;-60
2020/12/11 07:27:03;;;;;;;43.37;24.13;;;;;;;;;;5124348;27;20452;-60
2020/12/11 07:29:29;;;;;;;34.17;21.33;;;;;;;;;;5130211;27;20065;-60
2020/12/11 07:31:56;;;;;;;37.47;23.30;;;;;;;;;;5125706;27;20039;-61
2020/12/11 07:34:26;;;;;;;37.33;22.53;;;;;;;;;;5119801;27;20023;-60
2020/12/11 07:36:56;;;;;;;40.63;23.10;;;;;;;;;;5124116;27;20057;-60
2020/12/11 07:39:24;;;;;;;39.33;25.47;;;;;;;;;;5120692;27;20476;-60
2020/12/11 07:41:51;;;;;;;44.50;26.13;;;;;;;;;;5124006;27;20031;-60
2020/12/11 07:44:23;;;;;;;38.03;24.77;;;;;;;;;;5121916;27;20114;-60
2020/12/11 07:46:49;;;;;;;45.43;25.20;;;;;;;;;;5119809;27;20019;-61
2020/12/11 07:49:15;;;;;;;43.70;25.83;;;;;;;;;;5121838;27;20110;-61
2020/12/11 07:51:59;;;;;;;41.67;25.00;;;;;;;;;;5123844;27;20020;-60
2020/12/11 07:54:33;;;;;;;38.53;22.57;;;;;;;;;;5118839;27;20020;-61
2020/12/11 07:57:08;;;;;;;42.70;24.42;;;;;;;;;;5127656;27;20019;-60
2020/12/11 07:59:34;;;;;;;39.78;23.45;;;;;;;;;;5121540;27;20023;-60
2020/12/11 08:02:00;;;;;;;41.60;26.27;;;;;;;;;;5125396;27;20151;-61
2020/12/11 08:04:26;;;;;;;36.83;24.63;;;;;;;;;;5116348;27;20116;-61
2020/12/11 08:07:01;;;;;;;42.77;24.97;;;;;;;;;;5105954;27;20082;-60
2020/12/11 08:09:31;;;;;;;42.07;25.03;;;;;;;;;;5115210;27;20066;-61
2020/12/11 08:12:17;;;;;;;46.47;25.40;;;;;;;;;;5122330;27;20472;-60
2020/12/11 08:14:43;;;;;;;53.93;28.27;;;;;;;;;;5102402;27;20035;-60
2020/12/11 08:17:13;;;;;;;51.83;27.47;;;;;;;;;;5127127;27;20383;-60
2020/12/11 08:19:40;;;;;;;59.73;29.07;;;;;;;;;;5112394;27;20421;-60
2020/12/11 08:22:12;;;;;;;49.93;27.43;;;;;;;;;;5127589;27;20053;-60
2020/12/11 08:24:38;;;;;;;54.30;26.80;;;;;;;;;;5118259;27;20421;-60
2020/12/11 08:27:04;;;;;;;59.57;29.80;;;;;;;;;;5127208;27;20053;-60
2020/12/11 08:29:30;;;;;;;48.97;27.27;;;;;;;;;;5118755;27;20088;-60
2020/12/11 08:31:56;;;;;;;43.43;26.37;;;;;;;;;;5125036;27;20031;-60
2020/12/11 08:34:27;;;;;;;41.10;25.60;;;;;;;;;;5121587;27;20487;-60
2020/12/11 08:37:01;;;;;;;49.20;27.50;;;;;;;;;;5123284;27;20132;-60
2020/12/11 08:39:28;;;;;;;44.83;24.27;;;;;;;;;;5120031;27;20476;-60
2020/12/11 08:42:18;;;;;;;47.13;25.00;;;;;;;;;;5117350;27;20023;-60
2020/12/11 08:50:13;;;;;;;43.30;23.77;;;;;;;;;;5124082;27;20150;-60
2020/12/11 08:52:39;;;;;;;42.60;22.73;;;;;;;;;;5123920;27;20102;-60
2020/12/11 08:55:05;;;;;;;36.77;22.93;;;;;;;;;;5107065;27;20559;-60
2020/12/11 08:57:33;;;;;;;32.10;20.77;;;;;;;;;;5121545;27;20024;-60
2020/12/11 08:59:59;;;;;;;37.73;22.47;;;;;;;;;;5123251;27;20043;-60
2020/12/11 09:02:26;;;;;;;36.50;21.83;;;;;;;;;;5103192;27;20020;-60
2020/12/11 09:04:52;;;;;;;38.67;22.87;;;;;;;;;;5120348;27;20039;-59
2020/12/11 09:07:18;;;;;;;38.27;21.60;;;;;;;;;;5118762;27;20025;-60
2020/12/11 09:09:44;;;;;;;38.33;23.17;;;;;;;;;;5120665;27;20043;-60
2020/12/11 09:12:10;;;;;;;32.10;22.10;;;;;;;;;;5124013;27;20106;-60
2020/12/11 09:14:36;;;;;;;33.13;21.93;;;;;;;;;;5123278;27;20468;-59
2020/12/11 09:17:02;;;;;;;33.30;21.27;;;;;;;;;;5119793;27;20090;-60
2020/12/11 09:19:28;;;;;;;35.10;22.50;;;;;;;;;;5120280;27;20388;-59
2020/12/11 09:22:00;;;;;;;32.53;22.03;;;;;;;;;;5122437;27;20036;-60
2020/12/11 09:24:26;;;;;;;33.23;22.80;;;;;;;;;;5123705;27;20035;-60
2020/12/11 09:26:52;;;;;;;37.20;22.97;;;;;;;;;;5118396;27;20027;-60
2020/12/11 09:29:35;;;;;;;37.80;22.37;;;;;;;;;;5125934;27;20038;-60
2020/12/11 09:32:03;;;;;;;36.57;23.53;;;;;;;;;;5116823;27;20026;-60
2020/12/11 09:34:34;;;;;;;37.80;24.07;;;;;;;;;;5121663;27;20850;-60
2020/12/11 09:37:01;;;;;;;37.93;24.73;;;;;;;;;;5120643;27;20020;-60
2020/12/11 09:39:27;;;;;;;37.20;24.40;;;;;;;;;;5123073;27;20109;-60
2020/12/11 09:42:07;;;;;;;33.60;23.07;;;;;;;;;;5102204;27;20031;-60
2020/12/11 09:50:02;;;;;;;34.95;24.08;;;;;;;;;;5122286;27;20050;-59
2020/12/11 09:54:57;;;;;;;36.73;24.90;;;;;;;;;;5119174;27;20072;-60
2020/12/11 09:57:23;;;;;;;33.37;23.23;;;;;;;;;;5110998;27;20084;-60
2020/12/11 09:59:55;;;;;;;37.03;25.43;;;;;;;;;;5119250;27;20047;-60
2020/12/11 10:04:53;;;;;;;41.53;26.47;;;;;;;;;;5119138;27;20046;-60
2020/12/11 10:07:19;;;;;;;41.60;25.93;;;;;;;;;;5127820;27;20042;-61
2020/12/11 10:09:45;;;;;;;37.40;25.20;;;;;;;;;;5119392;27;20042;-61
2020/12/11 10:12:12;;;;;;;38.17;25.90;;;;;;;;;;5122550;27;20021;-61
2020/12/11 10:14:43;;;;;;;38.83;26.43;;;;;;;;;;5114840;27;20076;-61
2020/12/11 10:17:10;;;;;;;42.53;27.70;;;;;;;;;;5123310;27;20023;-61
2020/12/11 10:19:36;;;;;;;36.17;25.67;;;;;;;;;;5118293;27;20472;-61
2020/12/11 10:22:02;;;;;;;38.97;25.97;;;;;;;;;;5119604;27;20479;-61
2020/12/11 10:24:28;;;;;;;38.73;26.43;;;;;;;;;;5114802;27;20023;-61
2020/12/11 10:26:54;;;;;;;39.87;27.23;;;;;;;;;;5128687;27;20028;-61
2020/12/11 10:29:22;;;;;;;43.43;28.53;;;;;;;;;;5125064;27;20133;-61
2020/12/11 10:31:48;;;;;;;44.13;27.23;;;;;;;;;;5109567;27;20517;-61
2020/12/11 10:34:15;;;;;;;41.77;27.90;;;;;;;;;;5121219;27;20113;-61
2020/12/11 10:36:41;;;;;;;37.37;27.13;;;;;;;;;;5123454;27;20377;-61
2020/12/11 10:39:08;;;;;;;40.97;26.73;;;;;;;;;;5126728;27;20468;-61
2020/12/11 10:41:34;;;;;;;40.60;28.47;;;;;;;;;;5117425;27;20059;-61
2020/12/11 10:44:00;;;;;;;42.07;28.53;;;;;;;;;;5123502;27;20473;-61
2020/12/11 10:46:26;;;;;;;42.93;28.57;;;;;;;;;;5125734;27;20098;-61
2020/12/11 10:48:53;;;;;;;43.73;27.97;;;;;;;;;;5126402;27;20466;-61
2020/12/11 10:51:19;;;;;;;40.93;28.47;;;;;;;;;;5120603;27;20075;-61
2020/12/11 10:53:46;;;;;;;42.97;27.80;;;;;;;;;;5120215;27;20449;-61
2020/12/11 10:56:12;;;;;;;39.20;27.50;;;;;;;;;;5118483;27;20069;-61
2020/12/11 10:58:39;;;;;;;35.70;25.90;;;;;;;;;;5127748;27;20089;-61
2020/12/11 11:01:08;;;;;;;39.53;27.33;;;;;;;;;;5116164;27;20500;-61
2020/12/11 11:03:35;;;;;;;45.50;28.70;;;;;;;;;;5120929;27;20031;-60
2020/12/11 11:06:10;;;;;;;42.80;28.87;;;;;;;;;;5122033;27;20111;-61
2020/12/11 11:08:50;;;;;;;41.33;29.27;;;;;;;;;;5129927;27;20034;-63
2020/12/11 11:11:26;;;;;;;46.57;30.63;;;;;;;;;;5120151;27;20063;-60
2020/12/11 11:24:42;;;;;;;41.00;28.33;;;;;;;;;;5123379;27;20369;-55
2020/12/11 11:29:48;;;;;;;45.27;29.57;;;;;;;;;;5126126;27;20197;-56
2020/12/11 11:32:14;;;;;;;42.17;28.03;;;;;;;;;;5121153;27;20043;-59
2020/12/11 11:34:40;;;;;;;40.00;29.13;;;;;;;;;;5127533;27;20030;-60
2020/12/11 11:37:06;;;;;;;40.73;28.60;;;;;;;;;;5119299;27;20019;-57
2020/12/11 11:39:32;;;;;;;43.60;30.20;;;;;;;;;;5122117;27;20402;-58
2020/12/11 11:41:58;;;;;;;45.27;29.43;;;;;;;;;;5123980;27;20085;-57
2020/12/11 11:47:13;;;;;;;45.33;29.87;;;;;;;;;;5105941;27;20035;-61
2020/12/11 11:49:55;;;;;;;43.57;29.07;;;;;;;;;;5124291;27;20106;-61
2020/12/11 11:54:47;;;;;;;42.73;29.07;;;;;;;;;;5132777;27;20119;-60
2020/12/11 11:57:13;;;;;;;43.80;28.87;;;;;;;;;;5120866;27;20019;-60
2020/12/11 11:59:39;;;;;;;47.20;29.30;;;;;;;;;;5096714;28;20075;-60
2020/12/11 12:02:05;;;;;;;42.63;29.17;;;;;;;;;;5123191;27;20507;-59
2020/12/11 12:04:31;;;;;;;39.40;28.67;;;;;;;;;;5121401;27;20056;-58
2020/12/11 12:06:57;;;;;;;43.63;30.73;;;;;;;;;;5130848;27;20020;-55
2020/12/11 12:09:23;;;;;;;48.93;30.10;;;;;;;;;;5105737;27;20061;-57
2020/12/11 12:11:49;;;;;;;43.97;30.17;;;;;;;;;;5124862;27;20015;-61
2020/12/11 12:14:15;;;;;;;43.73;29.30;;;;;;;;;;5106450;27;20030;-61
2020/12/11 12:16:43;;;;;;;47.97;30.43;;;;;;;;;;5116457;27;20015;-60
2020/12/11 12:19:14;;;;;;;45.83;30.23;;;;;;;;;;5125761;27;20062;-60
2020/12/11 12:29:33;;;;;;;;;;;;;;;;;;5121295;27;20115;-61
2020/12/11 12:32:06;;;;;;;46.50;31.07;;;;;;;;;;5118699;27;20858;-60
2020/12/11 12:34:49;;;;;;;48.73;32.13;;;;;;;;;;5114735;27;20030;-60
2020/12/11 12:37:52;;;;;;;48.77;32.43;;;;;;;;;;5118155;27;20027;-58
2020/12/11 12:40:36;;;;;;;54.20;34.07;;;;;;;;;;5110275;27;20118;-60
2020/12/11 12:45:31;;;;;;;52.93;33.93;;;;;;;;;;5113680;27;20038;-60
2020/12/11 12:47:57;;;;;;;50.73;34.30;;;;;;;;;;5103925;27;20027;-57
2020/12/11 12:50:23;;;;;;;49.80;33.90;;;;;;;;;;5111197;27;20057;-59
2020/12/11 12:52:49;;;;;;;47.37;32.17;;;;;;;;;;5097802;27;20137;-61
2020/12/11 12:55:18;;;;;;;46.63;31.40;;;;;;;;;;5112637;27;20028;-60
2020/12/11 12:57:51;;;;;;;47.13;31.93;;;;;;;;;;5119561;27;20366;-60
2020/12/11 13:00:51;;;;;;;48.50;30.67;;;;;;;;;;5099735;28;20115;-56
2020/12/11 13:06:06;;;;;;;43.60;30.60;;;;;;;;;;5093907;28;20115;-55
2020/12/11 13:08:32;;;;;;;42.13;30.23;;;;;;;;;;5106484;28;20039;-56
2020/12/11 13:10:58;;;;;;;44.13;30.20;;;;;;;;;;5101606;28;20508;-51
2020/12/11 13:13:24;;;;;;;47.10;30.90;;;;;;;;;;5105118;28;20046;-56
2020/12/11 13:15:50;;;;;;;52.23;35.43;;;;;;;;;;5103262;28;20054;-56
2020/12/11 13:18:17;;;;;;;44.53;30.77;;;;;;;;;;5109701;27;20028;-61
2020/12/11 13:20:44;;;;;;;45.37;31.13;;;;;;;;;;5101193;28;20119;-61
2020/12/11 13:28:40;;;;;;;39.15;29.13;;;;;;;;;;5103159;28;20062;-65
2020/12/11 13:31:06;;;;;;;44.17;32.40;;;;;;;;;;5103929;27;20651;-66
2020/12/11 13:33:32;;;;;;;45.23;31.83;;;;;;;;;;5116711;27;20486;-65
2020/12/11 13:35:58;;;;;;;46.03;33.33;;;;;;;;;;5115005;27;20023;-65
2020/12/11 13:38:24;;;;;;;46.00;32.30;;;;;;;;;;5116365;27;20031;-65
2020/12/11 13:40:51;;;;;;;47.50;32.60;;;;;;;;;;5117909;27;20531;-66
2020/12/11 13:43:17;;;;;;;48.83;32.90;;;;;;;;;;5097387;27;20023;-66
2020/12/11 13:45:43;;;;;;;43.50;32.53;;;;;;;;;;5096795;27;20108;-66
2020/12/11 13:48:09;;;;;;;47.80;33.47;;;;;;;;;;5113090;27;20031;-66
2020/12/11 13:50:35;;;;;;;42.07;32.57;;;;;;;;;;5105291;27;20541;-66
2020/12/11 13:53:01;;;;;;;48.43;34.37;;;;;;;;;;5117222;27;20027;-66
2020/12/11 13:55:27;;;;;;;55.60;36.93;;;;;;;;;;5117655;27;20077;-66
2020/12/11 13:57:53;;;;;;;55.67;37.27;;;;;;;;;;5113904;27;20507;-66
2020/12/11 14:00:19;;;;;;;55.77;36.63;;;;;;;;;;5116111;27;20129;-66
2020/12/11 14:02:45;;;;;;;63.33;40.13;;;;;;;;;;5101987;27;20024;-67
2020/12/11 14:05:11;;;;;;;66.20;42.40;;;;;;;;;;5122161;27;20042;-66
2020/12/11 14:07:37;;;;;;;53.43;36.80;;;;;;;;;;5122219;27;20015;-66
2020/12/11 14:10:03;;;;;;;49.37;34.57;;;;;;;;;;5124634;27;20427;-65
2020/12/11 14:12:29;;;;;;;57.13;37.70;;;;;;;;;;5102723;28;20022;-66
2020/12/11 14:14:55;;;;;;;50.87;36.33;;;;;;;;;;5120768;27;20463;-66
2020/12/11 14:17:30;;;;;;;48.57;35.83;;;;;;;;;;5125616;27;20138;-66
2020/12/11 14:20:16;;;;;;;50.27;36.13;;;;;;;;;;5125196;27;20019;-66
2020/12/11 14:22:53;;;;;;;54.78;37.65;;;;;;;;;;5128931;27;20020;-66
2020/12/11 14:25:19;;;;;;;51.20;37.53;;;;;;;;;;5126403;27;20045;-66
2020/12/11 14:27:45;;;;;;;52.57;36.70;;;;;;;;;;5126534;27;20027;-66
2020/12/11 14:30:11;;;;;;;55.77;37.33;;;;;;;;;;5122464;27;20039;-66
2020/12/11 14:32:37;;;;;;;52.73;38.03;;;;;;;;;;5102071;27;20400;-66
2020/12/11 14:35:04;;;;;;;50.27;35.77;;;;;;;;;;5118780;27;20036;-66
2020/12/11 14:37:32;;;;;;;50.83;38.47;;;;;;;;;;5112146;27;20528;-66
2020/12/11 14:39:59;;;;;;;54.00;38.93;;;;;;;;;;5116864;27;20027;-65
2020/12/11 14:42:25;;;;;;;54.40;37.27;;;;;;;;;;5120838;27;20077;-66
2020/12/11 14:44:51;;;;;;;51.53;37.23;;;;;;;;;;5116346;27;20456;-66
2020/12/11 14:47:17;;;;;;;48.97;36.87;;;;;;;;;;5125603;27;20102;-66
2020/12/11 14:49:43;;;;;;;54.23;37.43;;;;;;;;;;5124211;27;20046;-66
2020/12/11 14:52:09;;;;;;;52.20;36.13;;;;;;;;;;5122992;27;20052;-66
2020/12/11 14:54:35;;;;;;;53.03;37.23;;;;;;;;;;5121957;27;20809;-66
2020/12/11 14:57:02;;;;;;;45.20;33.27;;;;;;;;;;5123036;27;20112;-66
2020/12/11 14:59:28;;;;;;;45.10;34.60;;;;;;;;;;5117668;27;20051;-66
2020/12/11 15:01:55;;;;;;;46.00;35.03;;;;;;;;;;5129156;27;20027;-66
2020/12/11 15:04:21;;;;;;;51.10;35.50;;;;;;;;;;5123957;27;20028;-66
2020/12/11 15:06:59;;;;;;;48.37;35.70;;;;;;;;;;5119715;27;20377;-66
2020/12/11 15:09:25;;;;;;;46.20;35.43;;;;;;;;;;5116690;27;20529;-65
2020/12/11 15:11:52;;;;;;;43.53;34.20;;;;;;;;;;5120061;27;20023;-65
2020/12/11 15:14:19;;;;;;;49.07;35.13;;;;;;;;;;5125409;27;20025;-65
2020/12/11 15:16:45;;;;;;;45.63;36.20;;;;;;;;;;5122131;27;20031;-65
2020/12/11 15:19:11;;;;;;;46.30;34.83;;;;;;;;;;5128123;27;20103;-65
2020/12/11 15:21:37;;;;;;;50.23;36.13;;;;;;;;;;5128077;27;20055;-65
2020/12/11 15:24:05;;;;;;;52.20;36.47;;;;;;;;;;5121652;27;20603;-65